createdAt,value
2022-09-12T04:38:53.426Z,98.84
2022-09-12T04:39:54.623Z,98.79
2022-09-12T04:40:55.631Z,98.59
2022-09-12T04:41:56.700Z,98.59
2022-09-12T04:42:57.886Z,98.28
2022-09-12T04:44:00.033Z,98.18
2022-09-12T04:45:02.380Z,97.87
2022-09-12T04:46:10.751Z,97.77
2022-09-12T04:47:12.179Z,97.77
2022-09-12T04:48:13.649Z,97.77
2022-09-12T04:49:08.964Z,97.77
2022-09-12T04:51:11.659Z,97.67
2022-09-12T04:52:12.888Z,97.57
2022-09-12T04:53:15.081Z,97.52
2022-09-12T04:54:16.259Z,97.42
2022-09-12T04:55:24.681Z,97.42
2022-09-12T04:56:19.834Z,97.42
2022-09-12T04:57:21.356Z,97.42
2022-09-12T04:58:28.666Z,97.32
2022-09-12T04:59:24.124Z,97.22
2022-09-12T05:00:31.137Z,97.11
2022-09-12T05:01:26.391Z,97.22
2022-09-12T05:02:27.410Z,97.22
2022-09-12T05:03:29.749Z,97.22
2022-09-12T05:04:30.696Z,97.11
2022-09-12T05:05:31.684Z,97.11
2022-09-12T05:06:33.837Z,97.11
2022-09-12T05:07:35.923Z,97.22
2022-09-12T05:08:37.113Z,96.97
2022-09-12T05:09:39.245Z,96.56
2022-09-12T05:10:40.710Z,96.45
2022-09-12T05:12:03.297Z,96.36
2022-09-12T05:12:44.135Z,96.36
2022-09-12T05:13:44.584Z,96.36
2022-09-12T05:14:46.698Z,96.31
2022-09-12T05:15:49.025Z,96.11
2022-09-12T05:16:50.517Z,95.91
2022-09-12T05:17:51.760Z,95.91
2022-09-12T05:18:52.990Z,95.80
2022-09-12T05:19:54.183Z,95.70
2022-09-12T05:20:56.307Z,95.60
2022-09-12T05:22:04.526Z,95.50
2022-09-12T05:22:59.652Z,95.35
2022-09-12T05:24:01.559Z,95.25
2022-09-12T05:25:02.643Z,95.05
2022-09-12T05:26:04.754Z,94.84
2022-09-12T05:27:06.872Z,94.79
2022-09-12T05:28:08.636Z,94.59
2022-09-12T05:29:09.819Z,93.98
2022-09-12T05:30:11.933Z,93.28
2022-09-12T05:31:14.059Z,92.93
2022-09-12T05:32:16.260Z,92.62
2022-09-12T05:33:20.958Z,92.41
2022-09-12T05:34:20.630Z,92.52
2022-09-12T05:35:21.809Z,92.32
2022-09-12T05:36:23.952Z,92.27
2022-09-12T05:37:26.099Z,92.07
2022-09-12T05:38:28.212Z,92.27
2022-09-12T05:39:30.348Z,91.97
2022-09-12T05:40:31.602Z,91.25
2022-09-12T05:41:32.837Z,91.46
2022-09-12T05:42:40.080Z,91.01
2022-09-12T05:43:35.420Z,91.42
2022-09-12T05:44:42.654Z,90.81
2022-09-12T05:45:38.085Z,90.26
2022-09-12T05:46:39.254Z,89.85
2022-09-12T05:47:46.559Z,89.34
2022-09-12T05:48:41.922Z,88.84
2022-09-12T05:49:42.899Z,88.84
2022-09-12T05:50:44.094Z,88.84
2022-09-12T05:51:46.224Z,89.25
2022-09-12T05:52:47.910Z,89.14
2022-09-12T05:53:55.193Z,88.90
2022-09-12T05:54:50.529Z,88.59
2022-09-12T05:55:52.648Z,88.19
2022-09-12T05:56:53.795Z,88.19
2022-09-12T05:57:54.753Z,88.35
2022-09-12T05:58:56.878Z,88.15
2022-09-12T06:00:05.483Z,88.25
2022-09-12T06:01:00.630Z,87.84
2022-09-12T06:02:01.944Z,88.04
2022-09-12T06:03:04.107Z,88.04
2022-09-12T06:04:08.541Z,88.15
2022-09-12T06:05:07.444Z,88.04
2022-09-12T06:06:08.651Z,87.74
2022-09-12T06:07:09.695Z,87.44
2022-09-12T06:08:11.814Z,87.54
2022-09-12T06:09:12.968Z,87.50
2022-09-12T06:10:15.399Z,87.50
2022-09-12T06:11:16.599Z,87.29
2022-09-12T06:12:17.828Z,87.15
2022-09-12T06:13:19.926Z,87.05
2022-09-12T06:14:22.056Z,86.54
2022-09-12T06:15:24.396Z,86.45
2022-09-12T06:16:31.455Z,86.00
2022-09-12T06:17:26.890Z,85.60
2022-09-12T06:18:29.011Z,85.25
2022-09-12T06:19:31.154Z,85.25
2022-09-12T06:20:32.332Z,85.25
2022-09-12T06:21:33.648Z,85.21
2022-09-12T06:22:34.563Z,84.36
2022-09-12T06:23:36.752Z,83.31
2022-09-12T06:24:37.949Z,79.93
2022-09-12T06:25:39.211Z,78.71
2022-09-12T06:26:40.242Z,76.96
2022-09-12T06:27:41.157Z,76.46
2022-09-12T06:28:43.380Z,75.18
2022-09-12T06:29:45.501Z,72.33
2022-09-12T06:30:47.643Z,74.07
2022-09-12T06:31:54.926Z,74.78
2022-09-12T06:32:50.038Z,74.98
2022-09-12T06:33:52.159Z,73.07
2022-09-12T06:35:00.380Z,69.68
2022-09-12T06:35:55.814Z,67.55
2022-09-12T06:36:57.014Z,66.79
2022-09-12T06:37:58.192Z,65.96
2022-09-12T06:39:00.053Z,63.76
2022-09-12T06:40:02.063Z,63.59
2022-09-12T06:41:02.050Z,66.09
2022-09-12T06:42:04.474Z,64.99
2022-09-12T06:43:06.703Z,62.24
2022-09-12T06:44:08.851Z,63.04
2022-09-12T06:45:10.979Z,61.23
2022-09-12T06:46:12.041Z,59.91
2022-09-12T06:47:13.032Z,57.18
2022-09-12T06:48:14.211Z,56.65
2022-09-12T06:49:16.333Z,55.98
2022-09-12T06:50:18.485Z,54.04
2022-09-12T06:51:20.597Z,52.50
2022-09-12T06:52:22.732Z,52.23
2022-09-12T06:53:24.851Z,54.49
2022-09-12T06:54:26.976Z,54.96
2022-09-12T06:55:29.091Z,56.54
2022-09-12T06:56:31.414Z,57.39
2022-09-12T06:57:32.367Z,58.53
2022-09-12T06:58:33.546Z,60.08
2022-09-12T06:59:35.825Z,61.24
2022-09-12T07:00:37.014Z,61.47
2022-09-12T07:01:39.302Z,62.70
2022-09-12T07:02:47.575Z,63.43
2022-09-12T07:03:42.690Z,64.09
2022-09-12T07:04:51.122Z,64.52
2022-09-12T07:05:46.283Z,65.52
2022-09-12T07:06:48.456Z,65.72
2022-09-12T07:07:50.593Z,65.32
2022-09-12T07:08:52.752Z,65.82
2022-09-12T07:09:54.912Z,64.99
2022-09-12T07:10:57.055Z,65.72
2022-09-12T07:11:59.218Z,65.42
2022-09-12T07:13:01.375Z,65.12
2022-09-12T07:14:08.691Z,66.05
2022-09-12T07:15:03.818Z,66.75
2022-09-12T07:16:05.945Z,65.95
2022-09-12T07:17:08.126Z,65.19
2022-09-12T07:18:09.138Z,64.86
2022-09-12T07:19:10.297Z,64.06
2022-09-12T07:20:11.649Z,63.20
2022-09-12T07:21:13.797Z,63.07
2022-09-12T07:22:15.894Z,62.57
2022-09-12T07:23:18.122Z,60.29
2022-09-12T07:24:20.323Z,61.28
2022-09-12T07:25:22.445Z,60.32
2022-09-12T07:26:23.422Z,59.93
2022-09-12T07:27:25.766Z,59.40
2022-09-12T07:28:26.954Z,59.13
2022-09-12T07:29:37.501Z,59.16
2022-09-12T07:30:31.068Z,59.26
2022-09-12T07:31:32.446Z,60.38
2022-09-12T07:32:33.706Z,60.38
2022-09-12T07:33:35.174Z,58.38
2022-09-12T07:34:36.171Z,58.14
2022-09-12T07:35:37.350Z,59.36
2022-09-12T07:36:39.483Z,60.32
2022-09-12T07:37:46.858Z,61.37
2022-09-12T07:38:42.056Z,62.10
2022-09-12T07:39:46.315Z,62.82
2022-09-12T07:40:46.444Z,63.16
2022-09-12T07:41:47.717Z,63.16
2022-09-12T07:42:49.847Z,63.00
2022-09-12T07:43:52.050Z,63.23
2022-09-12T07:44:52.969Z,63.13
2022-09-12T07:45:55.152Z,63.59
2022-09-12T07:46:57.283Z,62.80
2022-09-12T07:47:59.399Z,62.90
2022-09-12T07:49:08.470Z,63.29
2022-09-12T07:50:09.138Z,60.62
2022-09-12T07:51:04.455Z,60.04
2022-09-12T07:52:06.588Z,61.37
2022-09-12T07:53:07.547Z,62.63
2022-09-12T07:54:08.534Z,62.10
2022-09-12T07:55:10.662Z,61.97
2022-09-12T07:56:18.839Z,60.29
2022-09-12T07:57:14.188Z,59.89
2022-09-12T07:58:15.139Z,60.81
2022-09-12T07:59:25.519Z,61.74
2022-09-12T08:00:18.519Z,61.77
2022-09-12T08:01:24.733Z,61.27
2022-09-12T08:02:20.191Z,59.56
2022-09-12T08:03:21.291Z,56.69
2022-09-12T08:04:22.524Z,57.26
2022-09-12T08:05:23.745Z,55.86
2022-09-12T08:06:24.923Z,54.94
2022-09-12T08:07:27.065Z,53.72
2022-09-12T08:08:29.190Z,53.27
2022-09-12T08:09:30.385Z,50.33
2022-09-12T08:10:32.506Z,49.27
2022-09-12T08:11:34.633Z,49.15
2022-09-12T08:12:36.769Z,48.38
2022-09-12T08:13:38.150Z,47.25
2022-09-12T08:14:40.294Z,46.45
2022-09-12T08:15:42.509Z,45.20
2022-09-12T08:16:43.513Z,44.96
2022-09-12T08:17:45.610Z,43.78
2022-09-12T08:18:46.876Z,43.66
2022-09-12T08:19:47.828Z,43.32
2022-09-12T08:20:50.014Z,42.32
2022-09-12T08:21:52.335Z,41.61
2022-09-12T08:22:53.390Z,41.60
2022-09-12T08:23:55.493Z,40.82
2022-09-12T08:24:57.678Z,41.48
2022-09-12T08:26:02.173Z,42.68
2022-09-12T08:27:07.122Z,44.06
2022-09-12T08:28:02.478Z,45.36
2022-09-12T08:29:04.649Z,44.73
2022-09-12T08:30:06.797Z,43.75
2022-09-12T08:31:09.065Z,44.83
2022-09-12T08:32:10.236Z,44.90
2022-09-12T08:33:12.363Z,44.00
2022-09-12T08:34:14.490Z,44.02
2022-09-12T08:35:15.672Z,43.12
2022-09-12T08:36:16.646Z,43.74
2022-09-12T08:37:18.741Z,42.91
2022-09-12T08:38:20.875Z,42.08
2022-09-12T08:39:23.010Z,40.58
2022-09-12T08:40:25.171Z,40.42
2022-09-12T08:41:26.735Z,39.52
2022-09-12T08:42:28.866Z,38.70
2022-09-12T08:43:30.487Z,37.81
2022-09-12T08:44:31.407Z,37.40
2022-09-12T08:45:33.530Z,37.29
2022-09-12T08:46:35.645Z,36.60
2022-09-12T08:47:37.767Z,36.80
2022-09-12T08:48:39.893Z,36.21
2022-09-12T08:49:41.236Z,36.82
2022-09-12T08:50:47.906Z,37.23
2022-09-12T08:51:45.617Z,37.65
2022-09-12T08:52:46.687Z,38.97
2022-09-12T08:53:47.911Z,41.91
2022-09-12T08:54:48.948Z,42.41
2022-09-12T08:55:51.157Z,42.24
2022-09-12T08:56:52.124Z,41.11
2022-09-12T08:57:54.351Z,40.58
2022-09-12T08:58:55.301Z,41.62
2022-09-12T08:59:57.418Z,42.66
2022-09-12T09:00:59.585Z,45.29
2022-09-12T09:02:01.864Z,44.31
2022-09-12T09:03:02.868Z,43.29
2022-09-12T09:04:05.041Z,41.85
2022-09-12T09:05:07.158Z,41.40
2022-09-12T09:06:09.319Z,40.20
2022-09-12T09:07:11.406Z,39.70
2022-09-12T09:08:12.378Z,38.57
2022-09-12T09:09:14.507Z,37.38
2022-09-12T09:10:16.630Z,38.84
2022-09-12T09:11:18.880Z,39.62
2022-09-12T09:12:19.935Z,39.54
2022-09-12T09:13:22.063Z,41.11
2022-09-12T09:14:24.188Z,38.74
2022-09-12T09:15:32.368Z,40.23
2022-09-12T09:16:27.559Z,40.95
2022-09-12T09:17:29.682Z,40.40
2022-09-12T09:18:31.813Z,39.27
2022-09-12T09:19:33.265Z,38.04
2022-09-12T09:20:34.269Z,37.51
2022-09-12T09:21:36.429Z,38.18
2022-09-12T09:22:38.547Z,36.76
2022-09-12T09:23:40.705Z,35.85
2022-09-12T09:24:42.890Z,34.97
2022-09-12T09:25:43.926Z,36.31
2022-09-12T09:26:45.113Z,37.55
2022-09-12T09:27:47.294Z,37.50
2022-09-12T09:28:48.335Z,39.23
2022-09-12T09:29:50.540Z,41.58
2022-09-12T09:30:51.560Z,42.04
2022-09-12T09:31:53.689Z,43.55
2022-09-12T09:32:55.820Z,43.88
2022-09-12T09:33:57.933Z,43.46
2022-09-12T09:35:00.063Z,40.85
2022-09-12T09:36:01.452Z,41.89
2022-09-12T09:37:02.408Z,40.05
2022-09-12T09:38:04.526Z,39.33
2022-09-12T09:39:06.656Z,37.73
2022-09-12T09:40:08.974Z,36.95
2022-09-12T09:41:11.168Z,36.97
2022-09-12T09:42:13.283Z,37.18
2022-09-12T09:43:15.386Z,38.41
2022-09-12T09:44:17.505Z,40.15
2022-09-12T09:45:19.650Z,41.30
2022-09-12T09:46:21.848Z,44.26
2022-09-12T09:47:24.031Z,46.44
2022-09-12T09:48:25.217Z,47.02
2022-09-12T09:49:27.350Z,49.19
2022-09-12T09:50:29.474Z,51.72
2022-09-12T09:51:31.670Z,52.58
2022-09-12T09:52:32.726Z,53.88
2022-09-12T09:53:34.165Z,56.34
2022-09-12T09:54:35.370Z,57.27
2022-09-12T09:55:37.522Z,57.12
2022-09-12T09:56:45.029Z,57.92
2022-09-12T09:57:40.177Z,58.85
2022-09-12T09:58:42.332Z,60.07
2022-09-12T09:59:44.467Z,60.60
2022-09-12T10:00:46.587Z,61.00
2022-09-12T10:01:47.920Z,59.63
2022-09-12T10:02:49.085Z,60.36
2022-09-12T10:03:50.302Z,60.79
2022-09-12T10:04:51.258Z,62.59
2022-09-12T10:05:53.381Z,62.59
2022-09-12T10:06:55.531Z,61.59
2022-09-12T10:07:57.751Z,61.72
2022-09-12T10:09:00.327Z,61.82
2022-09-12T10:10:01.295Z,61.41
2022-09-12T10:11:03.669Z,61.52
2022-09-12T10:12:04.771Z,61.72
2022-09-12T10:13:05.876Z,60.07
2022-09-12T10:14:07.055Z,57.62
2022-09-12T10:15:08.028Z,56.47
2022-09-12T10:16:09.085Z,58.27
2022-09-12T10:17:11.260Z,56.27
2022-09-12T10:18:15.529Z,55.90
2022-09-12T10:19:15.575Z,55.38
2022-09-12T10:20:21.580Z,53.90
2022-09-12T10:21:19.717Z,54.60
2022-09-12T10:22:22.745Z,52.14
2022-09-12T10:23:22.552Z,52.78
2022-09-12T10:24:24.688Z,54.80
2022-09-12T10:25:26.843Z,53.83
2022-09-12T10:26:29.017Z,54.85
2022-09-12T10:27:31.154Z,54.58
2022-09-12T10:28:33.319Z,54.48
2022-09-12T10:29:34.607Z,54.30
2022-09-12T10:30:35.664Z,55.10
2022-09-12T10:31:37.839Z,55.53
2022-09-12T10:32:39.960Z,56.90
2022-09-12T10:33:42.173Z,55.98
2022-09-12T10:34:43.326Z,55.40
2022-09-12T10:35:45.500Z,55.70
2022-09-12T10:36:47.644Z,51.51
2022-09-12T10:37:52.292Z,53.30
2022-09-12T10:38:52.257Z,53.03
2022-09-12T10:39:54.480Z,52.58
2022-09-12T10:40:56.705Z,54.01
2022-09-12T10:41:58.908Z,54.40
2022-09-12T10:43:01.116Z,53.53
2022-09-12T10:44:02.036Z,49.88
2022-09-12T10:45:10.218Z,48.99
2022-09-12T10:46:05.358Z,46.55
2022-09-12T10:47:07.725Z,46.19
2022-09-12T10:48:08.682Z,45.41
2022-09-12T10:49:10.783Z,42.49
2022-09-12T10:50:22.356Z,41.66
2022-09-12T10:51:15.160Z,40.72
2022-09-12T10:52:16.484Z,40.58
2022-09-12T10:53:17.479Z,40.23
2022-09-12T10:54:19.627Z,38.74
2022-09-12T10:55:21.985Z,39.11
2022-09-12T10:56:24.081Z,39.56
2022-09-12T10:57:26.230Z,39.09
2022-09-12T10:58:28.376Z,38.86
2022-09-12T10:59:30.513Z,38.23
2022-09-12T11:00:32.669Z,36.94
2022-09-12T11:01:35.130Z,37.98
2022-09-12T11:02:36.146Z,34.77
2022-09-12T11:03:38.311Z,34.76
2022-09-12T11:04:40.502Z,34.60
2022-09-12T11:05:42.656Z,37.27
2022-09-12T11:06:43.613Z,36.76
2022-09-12T11:07:45.952Z,38.40
2022-09-12T11:08:46.912Z,37.70
2022-09-12T11:09:49.124Z,37.25
2022-09-12T11:10:50.051Z,37.81
2022-09-12T11:11:52.192Z,35.36
2022-09-12T11:12:54.405Z,35.87
2022-09-12T11:13:56.539Z,36.23
2022-09-12T11:14:58.671Z,39.28
2022-09-12T11:16:00.851Z,38.31
2022-09-12T11:17:02.163Z,39.31
2022-09-12T11:18:04.281Z,39.83
2022-09-12T11:19:06.490Z,40.27
2022-09-12T11:20:08.609Z,39.62
2022-09-12T11:21:10.737Z,39.88
2022-09-12T11:22:12.867Z,39.44
2022-09-12T11:23:14.985Z,41.84
2022-09-12T11:24:17.117Z,40.80
2022-09-12T11:25:19.254Z,39.44
2022-09-12T11:26:21.471Z,39.20
2022-09-12T11:27:23.680Z,37.68
2022-09-12T11:28:25.829Z,37.57
2022-09-12T11:29:28.111Z,37.48
2022-09-12T11:30:29.101Z,37.48
2022-09-12T11:31:31.281Z,36.89
2022-09-12T11:32:33.420Z,37.57
2022-09-12T11:33:39.650Z,37.42
2022-09-12T11:34:38.128Z,36.29
2022-09-12T11:35:37.936Z,35.38
2022-09-12T11:36:40.065Z,35.04
2022-09-12T11:37:42.321Z,35.84
2022-09-12T11:38:44.507Z,36.21
2022-09-12T11:39:46.815Z,36.07
2022-09-12T11:40:47.918Z,37.24
2022-09-12T11:41:50.054Z,37.44
2022-09-12T11:42:51.087Z,37.74
2022-09-12T11:43:53.238Z,38.77
2022-09-12T11:44:55.381Z,38.93
2022-09-12T11:45:57.607Z,38.59
2022-09-12T11:46:59.748Z,39.50
2022-09-12T11:48:01.887Z,38.67
2022-09-12T11:49:04.043Z,39.01
2022-09-12T11:50:06.133Z,37.01
2022-09-12T11:51:08.265Z,36.78
2022-09-12T11:52:10.430Z,35.47
2022-09-12T11:53:12.552Z,35.30
2022-09-12T11:54:14.724Z,36.96
2022-09-12T11:55:16.850Z,35.54
2022-09-12T11:56:19.004Z,34.24
2022-09-12T11:57:21.101Z,34.32
2022-09-12T11:58:22.059Z,35.29
2022-09-12T11:59:24.299Z,34.43
2022-09-12T12:00:25.275Z,34.81
2022-09-12T12:01:27.444Z,36.92
2022-09-12T12:02:29.624Z,37.07
2022-09-12T12:03:31.858Z,37.40
2022-09-12T12:04:34.030Z,38.18
2022-09-12T12:05:35.207Z,37.17
2022-09-12T12:06:37.376Z,35.58
2022-09-12T12:07:44.658Z,36.17
2022-09-12T12:08:41.908Z,37.59
2022-09-12T12:09:41.917Z,36.83
2022-09-12T12:10:44.188Z,37.61
2022-09-12T12:11:45.155Z,37.56
2022-09-12T12:12:49.531Z,36.43
2022-09-12T12:13:49.388Z,35.61
2022-09-12T12:14:51.531Z,35.30
2022-09-12T12:15:53.746Z,35.69
2022-09-12T12:16:54.856Z,35.59
2022-09-12T12:17:56.981Z,34.93
2022-09-12T12:18:59.106Z,35.15
2022-09-12T12:20:08.580Z,36.17
2022-09-12T12:21:03.023Z,36.40
2022-09-12T12:22:05.154Z,37.03
2022-09-12T12:23:07.635Z,37.34
2022-09-12T12:24:08.640Z,38.43
2022-09-12T12:25:10.741Z,39.34
2022-09-12T12:26:12.922Z,38.47
2022-09-12T12:27:15.167Z,38.69
2022-09-12T12:28:16.973Z,39.20
2022-09-12T12:29:19.060Z,39.63
2022-09-12T12:30:21.205Z,39.55
2022-09-12T12:31:23.397Z,40.05
2022-09-12T12:32:25.593Z,40.27
2022-09-12T12:33:27.723Z,40.68
2022-09-12T12:34:29.814Z,41.19
2022-09-12T12:35:31.990Z,43.19
2022-09-12T12:36:34.127Z,41.53
2022-09-12T12:37:35.374Z,42.52
2022-09-12T12:38:37.510Z,44.22
2022-09-12T12:39:39.739Z,44.22
2022-09-12T12:40:41.959Z,44.24
2022-09-12T12:41:44.093Z,43.84
2022-09-12T12:42:46.229Z,44.56
2022-09-12T12:43:48.357Z,45.35
2022-09-12T12:44:50.627Z,44.48
2022-09-12T12:45:51.874Z,42.99
2022-09-12T12:46:53.051Z,43.12
2022-09-12T12:47:55.154Z,44.50
2022-09-12T12:49:02.857Z,44.31
2022-09-12T12:49:58.163Z,45.59
2022-09-12T12:51:00.291Z,44.90
2022-09-12T12:52:01.522Z,45.39
2022-09-12T12:53:03.833Z,44.43
2022-09-12T12:54:09.805Z,46.13
2022-09-12T12:55:08.238Z,46.13
2022-09-12T12:56:09.201Z,45.94
2022-09-12T12:57:10.423Z,45.94
2022-09-12T12:58:18.650Z,45.95
2022-09-12T12:59:13.932Z,46.06
2022-09-12T13:00:15.025Z,46.85
2022-09-12T13:01:17.236Z,46.25
2022-09-12T13:02:18.262Z,45.86
2022-09-12T13:03:20.407Z,45.78
2022-09-12T13:04:22.554Z,46.08
2022-09-12T13:05:24.749Z,46.28
2022-09-12T13:06:26.949Z,46.40
2022-09-12T13:07:29.076Z,47.39
2022-09-12T13:08:31.230Z,47.00
2022-09-12T13:09:33.437Z,46.60
2022-09-12T13:10:35.654Z,47.49
2022-09-12T13:11:37.804Z,46.70
2022-09-12T13:12:38.765Z,46.80
2022-09-12T13:13:41.250Z,46.50
2022-09-12T13:14:42.439Z,47.00
2022-09-12T13:15:44.541Z,47.89
2022-09-12T13:16:46.739Z,45.90
2022-09-12T13:17:49.021Z,45.90
2022-09-12T13:18:50.223Z,47.39
2022-09-12T13:20:10.630Z,48.68
2022-09-12T13:20:54.546Z,46.25
2022-09-12T13:21:55.517Z,47.04
2022-09-12T13:22:57.646Z,47.04
2022-09-12T13:23:59.764Z,48.04
2022-09-12T13:25:01.898Z,46.94
2022-09-12T13:26:04.037Z,47.64
2022-09-12T13:27:06.199Z,47.96
2022-09-12T13:28:08.362Z,49.43
2022-09-12T13:29:10.489Z,47.83
2022-09-12T13:30:12.775Z,48.63
2022-09-12T13:31:13.718Z,49.73
2022-09-12T13:32:15.898Z,47.74
2022-09-12T13:33:16.982Z,47.24
2022-09-12T13:34:19.245Z,47.44
2022-09-12T13:35:20.164Z,48.33
2022-09-12T13:36:22.292Z,47.41
2022-09-12T13:37:24.422Z,48.01
2022-09-12T13:38:26.564Z,47.22
2022-09-12T13:39:28.663Z,46.42
2022-09-12T13:40:30.961Z,46.92
2022-09-12T13:41:33.065Z,47.82
